Time;durP1;ratioP1;P1;durP2;ratioP2;P2;SDS_P1;SDS_P2;PMS_P1;PMS_P2;Temp;Humidity;BMP_temperature;BMP_pressure;BME280_temperature;BME280_humidity;BME280_pressure;Samples;Min_cycle;Max_cycle;Signal;HPM_P1;HPM_P2
2021/12/06 00:01:55;;;;;;;48.65;27.65;;;4.30;99.90;;;;;;5009453;28;20030;-87
2021/12/06 00:04:25;;;;;;;49.13;26.90;;;4.30;99.90;;;;;;5010051;28;20084;-87
2021/12/06 00:06:56;;;;;;;48.10;25.70;;;4.30;99.90;;;;;;5025079;28;20026;-87
2021/12/06 00:09:25;;;;;;;42.13;24.35;;;4.30;99.90;;;;;;5025717;28;20482;-87
2021/12/06 00:11:56;;;;;;;45.45;25.05;;;4.30;99.90;;;;;;5025234;28;20465;-87
2021/12/06 00:14:27;;;;;;;43.60;24.77;;;4.30;99.90;;;;;;5018346;28;20036;-87
2021/12/06 00:16:54;;;;;;;43.97;25.23;;;4.30;99.90;;;;;;5024601;28;20133;-87
2021/12/06 00:19:20;;;;;;;44.17;24.90;;;4.30;99.90;;;;;;5024591;28;20033;-87
2021/12/06 00:21:45;;;;;;;47.05;25.25;;;4.30;99.90;;;;;;5024474;28;20026;-87
2021/12/06 00:24:11;;;;;;;44.38;25.70;;;4.30;99.90;;;;;;5026153;28;20037;-88
2021/12/06 00:26:36;;;;;;;40.63;23.73;;;4.30;99.90;;;;;;5025286;28;20030;-87
2021/12/06 00:29:02;;;;;;;44.35;24.45;;;4.30;99.90;;;;;;5025391;28;20037;-87
2021/12/06 00:31:32;;;;;;;43.20;24.45;;;4.30;99.90;;;;;;5025252;28;20450;-87
2021/12/06 00:34:02;;;;;;;47.50;25.42;;;4.30;99.90;;;;;;5009076;28;20374;-87
2021/12/06 00:36:30;;;;;;;45.20;26.27;;;4.30;99.90;;;;;;5003252;28;20021;-87
2021/12/06 00:38:56;;;;;;;47.15;25.85;;;4.20;99.90;;;;;;5025802;28;20022;-88
2021/12/06 00:41:22;;;;;;;46.13;26.92;;;4.30;99.90;;;;;;5010199;28;20128;-87
2021/12/06 00:43:48;;;;;;;47.83;27.48;;;4.20;99.90;;;;;;5021660;28;20022;-87
2021/12/06 00:46:13;;;;;;;47.88;25.80;;;4.20;99.90;;;;;;5005150;28;20079;-87
2021/12/06 00:48:39;;;;;;;53.80;27.60;;;4.20;99.90;;;;;;5008993;28;20026;-88
2021/12/06 00:51:05;;;;;;;47.88;26.80;;;4.20;99.90;;;;;;5017860;28;20070;-87
2021/12/06 00:53:30;;;;;;;51.97;26.88;;;4.20;99.90;;;;;;5024900;28;20364;-87
2021/12/06 00:55:56;;;;;;;51.33;28.60;;;4.20;99.90;;;;;;5011214;28;20030;-87
2021/12/06 00:58:22;;;;;;;55.67;29.45;;;4.20;99.90;;;;;;5025664;28;20026;-87
2021/12/06 01:00:50;;;;;;;55.70;29.23;;;4.20;99.90;;;;;;5009263;28;20574;-87
2021/12/06 01:03:25;;;;;;;55.90;29.33;;;4.10;99.90;;;;;;5008878;28;20076;-87
2021/12/06 01:05:51;;;;;;;59.00;29.40;;;4.20;99.90;;;;;;5023960;28;20041;-87
2021/12/06 01:08:17;;;;;;;51.15;27.55;;;4.20;99.90;;;;;;5011190;28;20041;-87
2021/12/06 01:10:43;;;;;;;54.05;28.77;;;4.20;99.90;;;;;;5027147;28;20037;-87
2021/12/06 01:13:09;;;;;;;56.00;28.55;;;4.20;99.90;;;;;;5010042;28;20022;-87
2021/12/06 01:15:36;;;;;;;53.38;27.42;;;4.20;99.90;;;;;;5026756;28;20022;-87
2021/12/06 01:18:04;;;;;;;49.30;27.05;;;4.20;99.90;;;;;;5022716;28;20121;-87
2021/12/06 01:20:33;;;;;;;51.42;29.05;;;4.20;99.90;;;;;;5021547;28;20486;-87
2021/12/06 01:23:05;;;;;;;52.40;28.10;;;4.20;99.90;;;;;;5024903;28;20076;-87
2021/12/06 01:28:34;;;;;;;50.58;27.38;;;4.20;99.90;;;;;;5011601;28;20030;-87
2021/12/06 01:31:12;;;;;;;52.95;27.52;;;4.20;99.90;;;;;;5009304;28;20359;-87
2021/12/06 01:39:26;;;;;;;54.30;28.15;;;4.20;99.90;;;;;;5009526;28;20075;-87
2021/12/06 01:41:57;;;;;;;55.85;30.30;;;4.20;99.90;;;;;;5011013;28;20496;-86
2021/12/06 01:44:28;;;;;;;49.63;27.63;;;4.10;99.90;;;;;;5030080;28;20382;-88
2021/12/06 01:46:58;;;;;;;54.13;29.87;;;4.20;99.90;;;;;;5028482;28;20028;-87
2021/12/06 01:49:30;;;;;;;56.45;29.75;;;4.20;99.90;;;;;;5026924;28;20105;-87
2021/12/06 01:52:01;;;;;;;56.73;29.90;;;4.10;99.90;;;;;;5003418;28;20041;-87
2021/12/06 01:54:27;;;;;;;55.45;28.83;;;4.20;99.90;;;;;;5012871;28;20076;-87
2021/12/06 01:56:53;;;;;;;52.58;29.85;;;4.10;99.90;;;;;;5008348;28;20034;-87
2021/12/06 01:59:20;;;;;;;52.45;28.55;;;4.10;99.90;;;;;;5024864;28;20437;-87
2021/12/06 02:01:46;;;;;;;51.72;28.52;;;4.20;99.90;;;;;;5007891;28;20084;-87
2021/12/06 02:04:13;;;;;;;51.13;28.75;;;4.20;99.90;;;;;;5029295;28;20037;-87
2021/12/06 02:06:40;;;;;;;57.35;29.38;;;4.10;99.90;;;;;;5013068;28;20022;-87
2021/12/06 02:09:08;;;;;;;50.38;28.55;;;4.10;99.90;;;;;;5029106;28;20497;-87
2021/12/06 02:11:36;;;;;;;56.70;29.17;;;4.10;99.90;;;;;;5027475;28;20033;-87
2021/12/06 02:14:22;;;;;;;57.05;30.38;;;4.10;99.90;;;;;;5014549;28;20021;-88
2021/12/06 02:17:04;;;;;;;52.50;28.58;;;4.10;99.90;;;;;;5023975;28;20030;-87
2021/12/06 02:19:34;;;;;;;50.25;28.70;;;4.10;99.90;;;;;;5025537;28;20084;-87
2021/12/06 02:22:01;;;;;;;63.63;30.80;;;4.10;99.90;;;;;;5011655;28;20033;-88
2021/12/06 02:24:28;;;;;;;56.47;29.95;;;4.10;99.90;;;;;;5013728;28;20030;-87
2021/12/06 02:26:54;;;;;;;58.38;31.40;;;4.10;99.90;;;;;;5028270;28;20419;-87
2021/12/06 02:29:20;;;;;;;55.83;30.30;;;4.10;99.90;;;;;;5011362;28;20026;-87
2021/12/06 02:31:46;;;;;;;54.80;30.27;;;4.10;99.90;;;;;;5028105;28;20083;-87
2021/12/06 02:34:12;;;;;;;56.78;28.70;;;4.10;99.90;;;;;;5028458;28;20446;-87
2021/12/06 02:36:37;;;;;;;56.75;29.63;;;4.10;99.90;;;;;;5028849;28;20425;-87
2021/12/06 02:39:09;;;;;;;57.72;29.52;;;4.10;99.90;;;;;;5029940;28;20117;-87
2021/12/06 02:41:35;;;;;;;57.90;31.15;;;4.10;99.90;;;;;;5027986;28;20026;-87
2021/12/06 02:44:02;;;;;;;54.67;28.77;;;4.10;99.90;;;;;;5009176;28;20061;-87
2021/12/06 02:46:27;;;;;;;62.25;30.15;;;4.10;99.90;;;;;;5024159;28;20026;-87
2021/12/06 02:48:53;;;;;;;60.10;30.45;;;4.10;99.90;;;;;;5027882;28;21589;-87
2021/12/06 02:51:19;;;;;;;65.15;33.00;;;4.10;99.90;;;;;;5028843;28;20114;-87
2021/12/06 02:53:46;;;;;;;62.55;33.15;;;4.10;99.90;;;;;;5025971;28;20062;-87
2021/12/06 02:59:07;;;;;;;61.63;31.63;;;4.10;99.90;;;;;;4996835;28;20037;-87
2021/12/06 03:01:34;;;;;;;60.83;32.22;;;4.20;99.90;;;;;;5027202;28;20121;-86
2021/12/06 03:04:02;;;;;;;74.40;33.05;;;4.20;99.90;;;;;;5011407;28;20025;-87
2021/12/06 03:06:29;;;;;;;64.65;32.35;;;4.20;99.90;;;;;;5026942;28;20076;-87
2021/12/06 03:09:05;;;;;;;61.13;32.10;;;4.20;99.90;;;;;;5012110;28;20037;-87
2021/12/06 03:11:34;;;;;;;65.88;30.88;;;4.20;99.90;;;;;;5010352;28;20508;-87
2021/12/06 03:13:59;;;;;;;61.35;30.88;;;4.20;99.90;;;;;;5028381;28;20117;-87
2021/12/06 03:16:25;;;;;;;66.93;32.55;;;4.20;99.90;;;;;;5027949;28;20113;-88
2021/12/06 03:18:53;;;;;;;70.05;31.90;;;4.20;99.90;;;;;;5026254;28;20038;-87
2021/12/06 03:21:20;;;;;;;67.68;33.97;;;4.20;99.90;;;;;;5010995;28;20064;-87
2021/12/06 03:23:47;;;;;;;68.72;31.88;;;4.20;99.90;;;;;;5010272;28;20030;-87
2021/12/06 03:26:12;;;;;;;70.50;32.88;;;4.20;99.90;;;;;;5012130;28;20092;-87
2021/12/06 03:28:41;;;;;;;72.25;33.90;;;4.20;99.90;;;;;;5027414;28;20026;-87
2021/12/06 03:31:07;;;;;;;68.95;31.30;;;4.20;99.90;;;;;;5027787;28;20053;-87
2021/12/06 03:33:35;;;;;;;59.35;30.63;;;4.20;99.90;;;;;;5025763;28;20076;-87
2021/12/06 03:36:05;;;;;;;63.70;30.92;;;4.20;99.90;;;;;;5012402;28;20026;-86
2021/12/06 03:38:31;;;;;;;58.05;30.02;;;4.20;99.90;;;;;;5009584;28;20553;-87
2021/12/06 03:40:56;;;;;;;68.93;33.13;;;4.20;99.90;;;;;;5012557;28;20160;-87
2021/12/06 03:43:22;;;;;;;63.05;30.52;;;4.20;99.90;;;;;;5011906;28;20025;-87
2021/12/06 03:45:48;;;;;;;65.38;33.13;;;4.20;99.90;;;;;;5027365;28;20547;-87
2021/12/06 03:48:14;;;;;;;68.05;33.25;;;4.10;99.90;;;;;;5007886;28;20022;-87
2021/12/06 03:50:40;;;;;;;64.82;30.17;;;4.10;99.90;;;;;;5027421;28;20088;-87
2021/12/06 03:53:05;;;;;;;54.95;27.33;;;4.10;99.90;;;;;;5026338;28;20492;-87
2021/12/06 03:55:31;;;;;;;59.65;28.35;;;4.10;99.90;;;;;;5010155;28;20489;-86
2021/12/06 03:57:57;;;;;;;64.18;28.88;;;4.10;99.90;;;;;;5026889;28;20076;-87
2021/12/06 04:00:22;;;;;;;70.95;31.95;;;4.00;99.90;;;;;;5024911;28;20030;-88
2021/12/06 04:02:48;;;;;;;73.15;33.13;;;4.10;99.90;;;;;;5023257;28;20037;-87
2021/12/06 04:05:14;;;;;;;64.05;30.48;;;4.10;99.90;;;;;;5009283;28;20038;-87
2021/12/06 04:07:40;;;;;;;74.10;30.05;;;4.10;99.90;;;;;;5023362;28;20233;-87
2021/12/06 04:10:08;;;;;;;63.03;30.25;;;4.10;99.90;;;;;;5027608;28;20667;-87
2021/12/06 04:12:34;;;;;;;68.07;30.80;;;4.10;99.90;;;;;;5008163;28;20032;-87
2021/12/06 04:15:00;;;;;;;63.97;30.52;;;4.10;99.90;;;;;;5027244;28;20033;-87
2021/12/06 04:17:26;;;;;;;66.15;30.45;;;4.10;99.90;;;;;;5024767;28;20042;-87
2021/12/06 04:19:52;;;;;;;68.70;32.28;;;4.10;99.90;;;;;;5010569;28;20034;-87
2021/12/06 04:22:18;;;;;;;60.58;29.90;;;4.00;99.90;;;;;;5022465;28;20021;-87
2021/12/06 04:24:44;;;;;;;63.60;30.13;;;4.00;99.90;;;;;;5025957;28;20048;-87
2021/12/06 04:27:15;;;;;;;68.38;31.83;;;4.00;99.90;;;;;;5025904;28;20045;-87
2021/12/06 04:29:43;;;;;;;75.30;31.77;;;4.00;99.90;;;;;;5026311;28;20037;-87
2021/12/06 04:32:09;;;;;;;72.18;33.20;;;4.00;99.90;;;;;;5024745;28;20040;-87
2021/12/06 04:34:35;;;;;;;70.13;31.15;;;3.90;99.90;;;;;;5026176;28;20030;-87
2021/12/06 04:37:00;;;;;;;64.53;31.48;;;4.00;99.90;;;;;;5022951;28;20041;-87
2021/12/06 04:39:26;;;;;;;69.32;33.63;;;4.00;99.90;;;;;;5024650;28;20022;-87
2021/12/06 04:41:51;;;;;;;69.63;31.52;;;4.00;99.90;;;;;;5010158;28;20030;-87
2021/12/06 04:44:17;;;;;;;75.90;34.00;;;3.90;99.90;;;;;;5005765;28;20066;-87
2021/12/06 04:46:43;;;;;;;78.05;34.58;;;3.90;99.90;;;;;;5025054;28;20565;-87
2021/12/06 04:49:09;;;;;;;76.25;33.85;;;3.90;99.90;;;;;;5009752;28;20390;-87
2021/12/06 04:51:36;;;;;;;75.85;33.10;;;3.90;99.90;;;;;;5026654;28;20474;-87
2021/12/06 04:54:02;;;;;;;76.57;33.97;;;3.90;99.90;;;;;;5008306;28;20042;-87
2021/12/06 04:56:36;;;;;;;74.32;32.45;;;3.80;99.90;;;;;;5021124;28;20121;-87
2021/12/06 04:59:09;;;;;;;79.20;34.72;;;3.90;99.90;;;;;;5007960;28;20021;-88
2021/12/06 05:01:35;;;;;;;76.05;32.60;;;3.80;99.90;;;;;;5024376;28;20509;-87
2021/12/06 05:04:07;;;;;;;77.10;31.33;;;3.70;99.90;;;;;;5009456;28;20108;-87
2021/12/06 05:06:36;;;;;;;74.20;31.25;;;3.70;99.90;;;;;;5025944;28;20393;-87
2021/12/06 05:09:11;;;;;;;68.38;29.98;;;3.70;99.90;;;;;;5030614;28;20030;-87
2021/12/06 05:11:37;;;;;;;231.10;32.05;;;3.60;99.90;;;;;;5006099;28;20080;-88
2021/12/06 05:14:03;;;;;;;73.10;30.73;;;3.50;99.90;;;;;;5015719;28;20032;-87
2021/12/06 05:16:30;;;;;;;58.90;27.15;;;3.50;99.90;;;;;;5004608;28;20030;-87
2021/12/06 05:18:56;;;;;;;79.32;30.52;;;3.40;99.90;;;;;;5013556;28;20073;-87
2021/12/06 05:21:22;;;;;;;74.15;31.35;;;3.40;99.90;;;;;;5031113;28;20084;-87
2021/12/06 05:23:48;;;;;;;69.20;29.15;;;3.30;99.90;;;;;;5012125;28;20026;-87
2021/12/06 05:26:14;;;;;;;82.15;33.70;;;3.20;99.90;;;;;;5030739;28;20030;-87
2021/12/06 05:28:43;;;;;;;84.68;30.98;;;3.10;99.90;;;;;;5027895;28;20048;-88
2021/12/06 05:31:15;;;;;;;82.20;33.55;;;3.00;99.90;;;;;;5003826;28;20417;-88
2021/12/06 05:33:50;;;;;;;70.03;30.23;;;2.90;99.90;;;;;;5010440;28;20022;-88
2021/12/06 05:36:15;;;;;;;73.25;30.88;;;2.80;99.90;;;;;;5012994;28;20033;-88
2021/12/06 05:38:42;;;;;;;65.53;28.63;;;2.70;99.90;;;;;;5012995;28;20025;-87
2021/12/06 05:41:07;;;;;;;72.28;29.88;;;2.70;99.90;;;;;;5030140;28;20072;-87
2021/12/06 05:43:33;;;;;;;85.38;31.63;;;2.60;99.90;;;;;;5011398;28;20021;-87
2021/12/06 05:46:00;;;;;;;85.68;34.10;;;2.60;99.90;;;;;;5011645;28;20046;-87
2021/12/06 05:48:26;;;;;;;89.30;33.33;;;2.50;99.90;;;;;;5024912;28;20117;-87
2021/12/06 05:50:52;;;;;;;95.55;33.17;;;2.40;99.90;;;;;;5024079;28;20145;-87
2021/12/06 05:53:18;;;;;;;86.95;31.33;;;2.40;99.90;;;;;;5008770;28;20038;-87
2021/12/06 05:55:46;;;;;;;88.28;32.15;;;2.30;99.90;;;;;;5011905;28;20108;-87
2021/12/06 05:58:13;;;;;;;87.95;32.17;;;2.20;99.90;;;;;;5027554;28;20026;-87
2021/12/06 06:00:39;;;;;;;75.40;29.25;;;2.10;99.90;;;;;;5011678;28;20284;-87
2021/12/06 06:03:06;;;;;;;87.75;29.65;;;2.10;99.90;;;;;;5005279;28;20410;-87
2021/12/06 06:05:33;;;;;;;70.88;27.52;;;2.00;99.90;;;;;;5006597;28;20034;-87
2021/12/06 06:08:00;;;;;;;146.02;28.85;;;1.90;99.90;;;;;;5014094;28;20111;-87
2021/12/06 06:10:26;;;;;;;185.85;31.73;;;1.80;99.90;;;;;;5011084;28;20033;-88
2021/12/06 06:12:52;;;;;;;226.25;37.05;;;1.80;99.90;;;;;;5029128;28;20500;-87
2021/12/06 06:15:17;;;;;;;78.75;27.55;;;1.80;99.90;;;;;;5027465;28;20041;-87
2021/12/06 06:17:44;;;;;;;71.82;29.08;;;1.80;99.90;;;;;;5029823;28;20065;-87
2021/12/06 06:20:34;;;;;;;81.60;30.48;;;1.70;99.90;;;;;;5029366;28;20045;-86
2021/12/06 06:23:01;;;;;;;105.93;34.33;;;1.70;99.90;;;;;;5027353;28;20042;-87
2021/12/06 06:25:29;;;;;;;102.13;34.45;;;1.70;99.90;;;;;;5028262;28;20030;-87
2021/12/06 06:27:54;;;;;;;83.55;31.90;;;1.70;99.90;;;;;;5026065;28;20030;-87
2021/12/06 06:30:20;;;;;;;96.32;33.53;;;1.70;99.90;;;;;;5018081;28;20029;-87
2021/12/06 06:32:46;;;;;;;96.40;32.45;;;1.70;99.90;;;;;;5028802;28;20030;-87
2021/12/06 06:35:14;;;;;;;85.15;30.27;;;1.80;99.90;;;;;;5029333;28;20026;-87
2021/12/06 06:37:40;;;;;;;172.30;33.63;;;1.70;99.90;;;;;;5025573;28;20026;-87
2021/12/06 06:40:08;;;;;;;85.85;31.25;;;1.80;99.90;;;;;;5007339;28;20959;-87
2021/12/06 06:42:34;;;;;;;90.03;30.50;;;1.80;99.90;;;;;;5011492;28;20026;-87
2021/12/06 06:45:00;;;;;;;84.00;31.83;;;1.90;99.90;;;;;;5027557;28;20029;-88
2021/12/06 06:47:26;;;;;;;82.53;29.73;;;1.90;99.90;;;;;;5013539;28;20037;-87
2021/12/06 06:49:52;;;;;;;184.68;29.60;;;1.90;99.90;;;;;;5011909;28;20044;-88
2021/12/06 06:52:18;;;;;;;102.65;28.83;;;1.90;99.90;;;;;;5027369;28;20157;-87
2021/12/06 06:54:44;;;;;;;116.90;28.55;;;2.00;99.90;;;;;;5029921;28;20073;-88
2021/12/06 06:57:10;;;;;;;71.25;27.00;;;2.00;99.90;;;;;;5031267;28;20121;-88
2021/12/06 06:59:36;;;;;;;95.07;33.17;;;2.10;99.90;;;;;;5035264;28;20026;-87
2021/12/06 07:02:02;;;;;;;92.25;33.30;;;2.10;99.90;;;;;;5027279;28;20079;-87
2021/12/06 07:04:28;;;;;;;121.85;35.80;;;2.20;99.90;;;;;;5020647;28;20181;-88
2021/12/06 07:06:54;;;;;;;125.18;37.75;;;2.30;99.90;;;;;;5012447;28;20053;-88
2021/12/06 07:09:20;;;;;;;225.10;44.03;;;2.40;99.90;;;;;;5013108;28;20030;-88
2021/12/06 07:11:46;;;;;;;283.08;50.03;;;2.50;99.90;;;;;;5012171;28;20076;-88
2021/12/06 07:14:16;;;;;;;239.32;50.90;;;2.60;99.90;;;;;;5009948;28;20545;-89
2021/12/06 07:16:44;;;;;;;184.15;48.92;;;2.60;99.90;;;;;;5012341;28;20065;-89
2021/12/06 07:19:11;;;;;;;126.75;45.70;;;2.70;99.90;;;;;;5013562;28;20033;-88
2021/12/06 07:21:36;;;;;;;205.77;47.70;;;2.80;99.90;;;;;;5013833;28;20109;-87
2021/12/06 07:24:03;;;;;;;178.93;49.03;;;2.80;99.90;;;;;;5030038;28;20458;-88
2021/12/06 07:26:29;;;;;;;182.50;47.80;;;2.90;99.90;;;;;;5031031;28;20512;-88
2021/12/06 07:28:55;;;;;;;206.77;47.28;;;2.90;99.90;;;;;;5030498;28;20030;-89
2021/12/06 07:31:23;;;;;;;278.75;52.13;;;3.00;99.90;;;;;;5012682;28;20029;-89
2021/12/06 07:33:49;;;;;;;316.80;54.60;;;3.00;99.90;;;;;;5014944;28;20212;-89
2021/12/06 07:36:15;;;;;;;207.30;51.20;;;3.00;99.90;;;;;;5014958;28;20021;-88
2021/12/06 07:38:42;;;;;;;242.98;49.53;;;3.00;99.90;;;;;;5005494;28;20497;-89
2021/12/06 07:41:11;;;;;;;224.23;50.65;;;3.10;99.90;;;;;;5013927;28;20017;-89
2021/12/06 07:43:37;;;;;;;229.50;51.78;;;3.10;99.90;;;;;;5030676;28;20030;-88
2021/12/06 07:46:04;;;;;;;196.60;51.22;;;3.10;99.90;;;;;;5022719;28;20030;-89
2021/12/06 07:48:30;;;;;;;183.32;51.67;;;3.20;99.90;;;;;;5027047;28;20030;-89
2021/12/06 07:50:56;;;;;;;731.53;79.28;;;3.20;99.90;;;;;;5012140;28;20041;-89
2021/12/06 07:53:22;;;;;;;231.63;51.05;;;3.20;99.90;;;;;;5013246;28;20560;-88
2021/12/06 07:55:47;;;;;;;199.18;46.83;;;3.20;99.90;;;;;;5014024;28;20033;-89
2021/12/06 07:58:13;;;;;;;169.40;42.28;;;3.20;99.90;;;;;;5015048;28;20562;-88
2021/12/06 08:00:45;;;;;;;216.77;50.25;;;3.20;99.90;;;;;;5006075;28;20121;-89
2021/12/06 08:03:12;;;;;;;224.43;50.75;;;3.20;99.90;;;;;;5025461;28;20084;-88
2021/12/06 08:05:41;;;;;;;208.07;49.88;;;3.20;99.90;;;;;;5012627;28;20040;-87
2021/12/06 08:08:17;;;;;;;392.08;60.58;;;3.20;99.90;;;;;;5012066;28;20024;-86
2021/12/06 08:10:46;;;;;;;191.43;50.80;;;3.20;99.90;;;;;;5012163;28;20041;-86
2021/12/06 08:13:14;;;;;;;262.38;55.72;;;3.20;99.90;;;;;;5003190;28;20110;-88
2021/12/06 08:15:40;;;;;;;158.13;48.85;;;3.20;99.90;;;;;;5014893;28;20026;-89
2021/12/06 08:18:06;;;;;;;174.95;49.45;;;3.30;99.90;;;;;;5029649;28;20053;-88
2021/12/06 08:20:33;;;;;;;146.45;45.25;;;3.30;99.90;;;;;;5013431;28;20037;-88
2021/12/06 08:22:58;;;;;;;164.57;50.00;;;3.30;99.90;;;;;;5011189;28;20033;-88
2021/12/06 08:25:24;;;;;;;107.57;40.20;;;3.30;99.90;;;;;;5012902;28;20034;-88
2021/12/06 08:27:50;;;;;;;154.98;49.28;;;3.30;99.90;;;;;;5011112;28;20049;-89
2021/12/06 08:30:22;;;;;;;108.20;46.55;;;3.30;99.90;;;;;;5012895;28;20478;-87
2021/12/06 08:32:49;;;;;;;118.57;42.87;;;3.30;99.90;;;;;;5011857;28;20087;-88
2021/12/06 08:35:15;;;;;;;139.50;45.55;;;3.30;99.90;;;;;;5012493;28;20363;-88
2021/12/06 08:37:41;;;;;;;158.80;40.97;;;3.30;99.90;;;;;;5012280;28;20125;-88
2021/12/06 08:40:07;;;;;;;132.73;42.83;;;3.30;99.90;;;;;;5012751;28;20055;-88
2021/12/06 08:42:33;;;;;;;173.57;45.38;;;3.30;99.90;;;;;;5011978;28;20018;-87
2021/12/06 08:44:59;;;;;;;161.00;44.78;;;3.30;99.90;;;;;;5011838;28;20041;-87
2021/12/06 08:47:25;;;;;;;230.20;44.47;;;3.20;99.90;;;;;;5012682;28;20006;-89
2021/12/06 08:49:51;;;;;;;110.13;39.65;;;3.30;99.90;;;;;;5028640;28;20570;-88
2021/12/06 08:52:17;;;;;;;134.77;44.47;;;3.30;99.90;;;;;;5013362;28;20025;-89
2021/12/06 08:54:43;;;;;;;113.13;39.10;;;3.30;99.90;;;;;;5012025;28;20026;-88
2021/12/06 08:57:09;;;;;;;105.72;39.03;;;3.30;99.90;;;;;;5008296;28;20030;-88
2021/12/06 08:59:35;;;;;;;165.00;44.88;;;3.30;99.90;;;;;;5013849;28;20068;-89
2021/12/06 09:02:01;;;;;;;127.82;42.83;;;3.40;99.90;;;;;;5013902;28;20108;-87
2021/12/06 09:04:31;;;;;;;118.85;39.08;;;3.30;99.90;;;;;;5013126;28;20503;-88
2021/12/06 09:06:58;;;;;;;95.38;39.45;;;3.40;99.90;;;;;;5009631;28;20030;-87
2021/12/06 09:09:27;;;;;;;102.60;37.65;;;3.30;99.90;;;;;;5009942;28;20052;-89
2021/12/06 09:11:53;;;;;;;101.20;33.38;;;3.40;99.90;;;;;;5012878;28;20474;-89
2021/12/06 09:14:19;;;;;;;104.57;36.50;;;3.30;99.90;;;;;;5007571;28;20105;-89
2021/12/06 09:16:45;;;;;;;123.68;39.28;;;3.30;99.90;;;;;;5016464;28;20064;-88
2021/12/06 09:19:12;;;;;;;145.80;42.15;;;3.30;99.90;;;;;;5008341;28;20405;-89
2021/12/06 09:21:39;;;;;;;183.48;42.28;;;3.30;99.90;;;;;;5013273;28;20057;-90
2021/12/06 09:24:11;;;;;;;142.50;38.83;;;3.20;99.90;;;;;;5009716;28;20029;-88
2021/12/06 09:26:37;;;;;;;120.32;38.72;;;3.30;99.90;;;;;;5020567;28;20029;-87
2021/12/06 09:29:03;;;;;;;152.90;40.53;;;3.30;99.90;;;;;;5011120;28;20056;-88
2021/12/06 09:31:29;;;;;;;100.20;38.08;;;3.30;99.90;;;;;;5011524;28;20045;-87
2021/12/06 09:33:54;;;;;;;106.05;39.08;;;3.30;99.90;;;;;;5011174;28;20030;-90
2021/12/06 09:36:21;;;;;;;91.22;37.42;;;3.30;99.90;;;;;;5012591;28;20475;-88
2021/12/06 09:38:47;;;;;;;120.97;40.53;;;3.30;99.90;;;;;;5012942;28;20120;-88
2021/12/06 09:41:19;;;;;;;134.32;40.35;;;3.30;99.90;;;;;;5014100;28;20033;-89
2021/12/06 09:43:46;;;;;;;133.65;39.83;;;3.30;99.90;;;;;;5011330;28;20029;-89
2021/12/06 09:46:13;;;;;;;123.63;38.85;;;3.30;99.90;;;;;;5011029;28;20061;-89
2021/12/06 09:48:41;;;;;;;147.25;40.05;;;3.20;99.90;;;;;;5011626;28;20084;-88
2021/12/06 09:51:27;;;;;;;121.40;38.20;;;3.20;99.90;;;;;;5013304;28;20030;-88
2021/12/06 09:53:56;;;;;;;171.27;44.60;;;3.20;99.90;;;;;;5013311;28;20057;-89
2021/12/06 09:56:26;;;;;;;105.72;39.88;;;3.10;99.90;;;;;;5029423;28;20076;-88
2021/12/06 09:58:52;;;;;;;133.98;41.38;;;3.10;99.90;;;;;;5011492;28;20032;-88
2021/12/06 10:01:31;;;;;;;141.70;42.13;;;3.10;99.90;;;;;;5011064;28;20034;-90
2021/12/06 10:03:58;;;;;;;141.73;38.72;;;3.20;99.90;;;;;;5014636;28;20052;-89
2021/12/06 10:06:26;;;;;;;180.85;40.72;;;3.30;99.90;;;;;;5020592;28;20043;-88
2021/12/06 10:08:53;;;;;;;186.55;44.60;;;3.30;99.90;;;;;;5015523;28;20208;-89
2021/12/06 10:11:20;;;;;;;197.82;44.88;;;3.30;99.90;;;;;;5029426;28;20593;-89
2021/12/06 10:13:47;;;;;;;231.23;41.70;;;3.30;99.90;;;;;;5013687;28;20026;-89
2021/12/06 10:16:13;;;;;;;171.85;41.40;;;3.40;99.90;;;;;;5020052;28;20049;-88
2021/12/06 10:18:40;;;;;;;158.18;40.03;;;3.40;99.90;;;;;;5013936;28;20401;-89
2021/12/06 10:21:06;;;;;;;280.13;42.85;;;3.50;99.90;;;;;;5029689;28;20034;-90
2021/12/06 10:23:36;;;;;;;155.10;39.83;;;3.50;99.90;;;;;;5014023;28;20041;-90
2021/12/06 10:26:04;;;;;;;153.35;37.25;;;3.50;99.90;;;;;;5031031;28;20128;-89
2021/12/06 10:28:31;;;;;;;169.40;43.35;;;3.50;99.90;;;;;;5013584;28;20040;-89
2021/12/06 10:31:00;;;;;;;145.90;41.38;;;3.60;99.90;;;;;;5027324;28;20026;-89
2021/12/06 10:33:30;;;;;;;133.40;39.08;;;3.60;99.90;;;;;;5031679;28;20080;-89
2021/12/06 10:35:59;;;;;;;140.05;39.47;;;3.60;99.90;;;;;;5013357;28;20427;-89
2021/12/06 10:38:31;;;;;;;141.45;39.85;;;3.70;99.90;;;;;;5031409;28;20026;-89
2021/12/06 10:41:00;;;;;;;122.90;40.35;;;3.60;99.90;;;;;;5014790;28;20057;-88
2021/12/06 10:43:26;;;;;;;127.47;40.40;;;3.70;99.90;;;;;;5031035;28;20481;-88
2021/12/06 10:45:54;;;;;;;120.40;40.50;;;3.60;99.90;;;;;;5014711;28;20038;-88
2021/12/06 10:48:20;;;;;;;121.45;38.03;;;3.60;99.90;;;;;;5030228;28;20030;-89
2021/12/06 10:51:11;;;;;;;111.57;37.05;;;3.70;99.90;;;;;;5012445;28;20379;-88
2021/12/06 10:53:45;;;;;;;115.95;34.15;;;3.80;99.90;;;;;;5020860;28;20528;-88
2021/12/06 10:56:21;;;;;;;105.95;34.00;;;3.80;99.90;;;;;;5013766;28;20029;-89
2021/12/06 10:58:56;;;;;;;116.57;34.70;;;3.70;99.90;;;;;;5012837;28;20038;-87
2021/12/06 11:01:28;;;;;;;110.47;36.42;;;3.60;99.90;;;;;;5028040;28;20026;-88
2021/12/06 11:03:55;;;;;;;;;;;3.60;99.90;;;;;;5031373;28;20037;-88
2021/12/06 11:06:24;;;;;;;106.38;34.53;;;3.50;99.90;;;;;;5012502;28;19925;-88
2021/12/06 11:08:53;;;;;;;121.18;36.10;;;3.50;99.90;;;;;;5007992;28;20470;-87
2021/12/06 11:11:26;;;;;;;115.00;37.08;;;3.50;99.90;;;;;;5005747;28;20072;-88
2021/12/06 11:13:58;;;;;;;125.82;39.17;;;3.40;99.90;;;;;;5012397;28;20315;-88
2021/12/06 11:16:33;;;;;;;111.60;35.85;;;3.40;99.90;;;;;;5010232;28;20026;-88
2021/12/06 11:19:05;;;;;;;103.47;36.10;;;3.40;99.90;;;;;;4999106;28;20053;-88
2021/12/06 11:21:33;;;;;;;107.10;36.28;;;3.40;99.90;;;;;;5008162;28;20061;-88
2021/12/06 11:24:10;;;;;;;88.18;33.70;;;3.40;99.90;;;;;;5013345;28;20112;-89
2021/12/06 11:26:40;;;;;;;78.20;31.60;;;3.40;99.90;;;;;;5023740;28;20038;-89
2021/12/06 11:29:09;;;;;;;77.93;29.45;;;3.40;99.90;;;;;;5038442;28;20030;-89
2021/12/06 11:31:35;;;;;;;75.53;28.02;;;3.40;99.90;;;;;;5013039;28;20176;-89
2021/12/06 11:34:05;;;;;;;66.82;26.15;;;3.50;99.90;;;;;;5013982;28;20065;-88
2021/12/06 11:36:31;;;;;;;86.03;31.80;;;3.50;99.90;;;;;;5011815;28;20381;-88
2021/12/06 11:39:15;;;;;;;87.07;31.10;;;3.40;99.90;;;;;;5013806;28;20026;-87
2021/12/06 11:41:44;;;;;;;88.43;31.17;;;3.50;99.90;;;;;;5010076;28;20022;-87
2021/12/06 11:44:31;;;;;;;88.18;33.92;;;3.50;99.90;;;;;;5001993;28;20389;-88
2021/12/06 11:47:18;;;;;;;85.57;29.50;;;3.50;99.90;;;;;;4993634;28;20439;-88
2021/12/06 11:49:55;;;;;;;70.05;26.80;;;3.50;99.90;;;;;;4993906;28;20043;-88
2021/12/06 11:52:24;;;;;;;72.75;27.52;;;3.50;99.90;;;;;;4994175;28;20379;-88
2021/12/06 11:54:53;;;;;;;74.40;28.38;;;3.60;99.90;;;;;;5004562;28;20077;-88
2021/12/06 11:57:24;;;;;;;63.13;26.30;;;3.50;99.90;;;;;;5027514;28;20046;-87
2021/12/06 11:59:54;;;;;;;67.32;26.13;;;3.60;99.90;;;;;;5015065;28;20048;-88
2021/12/06 12:02:43;;;;;;;68.43;27.90;;;3.60;99.90;;;;;;5015306;28;20026;-88
2021/12/06 12:05:32;;;;;;;65.22;25.88;;;3.60;99.90;;;;;;5012557;28;20367;-89
2021/12/06 12:08:07;;;;;;;58.42;24.60;;;3.60;99.90;;;;;;5006094;28;20125;-89
2021/12/06 12:10:35;;;;;;;58.50;24.42;;;3.60;99.90;;;;;;5014358;28;20378;-88
2021/12/06 12:13:01;;;;;;;60.17;25.17;;;3.60;99.90;;;;;;4995185;28;20041;-88
2021/12/06 12:15:27;;;;;;;59.80;25.27;;;3.60;99.90;;;;;;4996847;28;20033;-88
2021/12/06 12:17:53;;;;;;;67.80;27.08;;;3.60;99.90;;;;;;5023764;28;20054;-88
2021/12/06 12:20:23;;;;;;;65.00;25.60;;;3.60;99.90;;;;;;5009153;28;20034;-88
2021/12/06 12:22:56;;;;;;;58.60;25.67;;;3.70;99.90;;;;;;5012238;28;20142;-88
2021/12/06 12:25:30;;;;;;;57.55;24.63;;;3.70;99.90;;;;;;5012200;28;20046;-88
2021/12/06 12:28:13;;;;;;;55.83;25.73;;;3.70;99.90;;;;;;5010089;28;20125;-88
2021/12/06 12:30:38;;;;;;;57.97;25.45;;;3.70;99.90;;;;;;5014790;28;20021;-88
2021/12/06 12:33:06;;;;;;;55.70;26.60;;;3.80;99.90;;;;;;5015006;28;20030;-88
2021/12/06 12:35:32;;;;;;;60.55;26.10;;;3.70;99.90;;;;;;5014516;28;20030;-88
2021/12/06 12:37:59;;;;;;;62.33;24.98;;;3.80;99.90;;;;;;5014392;28;20030;-87
2021/12/06 12:40:41;;;;;;;62.58;23.15;;;3.80;99.90;;;;;;5000353;28;20045;-88
2021/12/06 12:43:10;;;;;;;56.47;22.17;;;3.80;99.90;;;;;;4993910;28;20489;-88
2021/12/06 12:45:39;;;;;;;58.83;22.30;;;3.90;99.90;;;;;;5018058;28;20147;-88
2021/12/06 12:48:05;;;;;;;55.78;22.20;;;4.00;99.90;;;;;;5010940;28;20028;-88
2021/12/06 12:50:31;;;;;;;61.13;26.02;;;4.00;99.90;;;;;;5015772;28;20529;-88